createdAt,value
2022-08-17T00:00:06.858Z,14.80
2022-08-17T00:02:42.802Z,14.97
2022-08-17T00:05:10.257Z,15.07
2022-08-17T00:07:37.220Z,13.63
2022-08-17T00:10:04.527Z,13.10
2022-08-17T00:12:43.316Z,12.97
2022-08-17T00:15:13.474Z,14.10
2022-08-17T00:17:42.836Z,14.43
2022-08-17T00:20:12.098Z,14.00
2022-08-17T00:22:39.057Z,13.70
2022-08-17T00:25:13.468Z,13.90
2022-08-17T00:27:41.037Z,14.40
2022-08-17T00:30:12.132Z,14.33
2022-08-17T00:33:23.505Z,16.73
2022-08-17T00:35:34.695Z,15.13
2022-08-17T00:38:02.051Z,16.23
2022-08-17T00:40:44.327Z,13.93
2022-08-17T00:43:20.935Z,16.17
2022-08-17T00:45:48.577Z,14.73
2022-08-17T00:48:29.223Z,15.40
2022-08-17T00:51:48.632Z,15.57
2022-08-17T00:54:30.429Z,14.60
2022-08-17T00:57:07.564Z,15.33
2022-08-17T00:59:40.475Z,14.77
2022-08-17T01:02:10.999Z,15.13
2022-08-17T01:04:38.968Z,15.37
2022-08-17T01:07:06.984Z,16.33
2022-08-17T01:09:34.417Z,15.17
2022-08-17T01:12:01.752Z,15.60
2022-08-17T01:14:29.081Z,15.60
2022-08-17T01:16:56.467Z,15.80
2022-08-17T01:19:28.835Z,14.10
2022-08-17T01:22:07.995Z,14.87
2022-08-17T01:24:38.665Z,14.80
2022-08-17T01:27:10.350Z,14.77
2022-08-17T01:29:46.011Z,15.07
2022-08-17T01:32:13.090Z,15.20
2022-08-17T01:34:43.671Z,14.73
2022-08-17T01:37:18.223Z,14.53
2022-08-17T01:39:53.075Z,15.87
2022-08-17T01:42:27.302Z,14.27
2022-08-17T01:44:59.064Z,16.57
2022-08-17T01:47:26.426Z,16.77
2022-08-17T01:49:55.362Z,16.17
2022-08-17T01:52:23.867Z,15.37
2022-08-17T01:54:52.525Z,15.93
2022-08-17T01:57:19.742Z,16.90
2022-08-17T01:59:46.742Z,19.80
2022-08-17T02:02:31.163Z,15.33
2022-08-17T02:04:59.757Z,15.40
2022-08-17T02:07:27.035Z,16.10
2022-08-17T02:09:54.593Z,16.57
2022-08-17T02:12:39.065Z,17.57
2022-08-17T02:15:12.477Z,17.20
2022-08-17T02:17:40.807Z,16.23
2022-08-17T02:20:10.128Z,16.70
2022-08-17T02:22:40.260Z,16.50
2022-08-17T02:25:10.353Z,16.03
2022-08-17T02:27:39.910Z,15.53
2022-08-17T02:31:01.693Z,14.70
2022-08-17T02:32:59.342Z,16.27
2022-08-17T02:35:31.612Z,15.37
2022-08-17T02:37:58.551Z,16.53
2022-08-17T02:40:35.806Z,16.77
2022-08-17T02:43:04.391Z,16.40
2022-08-17T02:45:31.355Z,16.10
2022-08-17T02:47:58.368Z,16.63
2022-08-17T02:50:26.017Z,16.90
2022-08-17T02:53:01.535Z,16.20
2022-08-17T02:55:41.415Z,16.63
2022-08-17T02:58:10.650Z,15.40
2022-08-17T03:00:43.164Z,15.53
2022-08-17T03:03:13.585Z,16.20
2022-08-17T03:05:40.843Z,16.13
2022-08-17T03:08:11.757Z,15.47
2022-08-17T03:10:41.370Z,16.13
2022-08-17T03:13:08.894Z,16.10
2022-08-17T03:15:36.445Z,15.40
2022-08-17T03:18:07.707Z,15.07
2022-08-17T03:20:42.111Z,14.37
2022-08-17T03:23:09.872Z,14.77
2022-08-17T03:25:43.397Z,16.63
2022-08-17T03:28:14.942Z,15.90
2022-08-17T03:30:41.979Z,16.60
2022-08-17T03:33:10.759Z,16.10
2022-08-17T03:35:40.474Z,17.30
2022-08-17T03:38:12.261Z,16.90
2022-08-17T03:40:57.256Z,15.60
2022-08-17T03:43:32.033Z,16.30
2022-08-17T03:46:28.043Z,16.80
2022-08-17T03:49:24.937Z,19.40
2022-08-17T03:52:12.092Z,16.80
2022-08-17T03:54:58.177Z,25.90
2022-08-17T03:57:26.166Z,19.10
2022-08-17T03:59:54.449Z,18.63
2022-08-17T04:02:27.705Z,17.53
2022-08-17T04:04:54.797Z,15.93
2022-08-17T04:07:25.524Z,17.17
2022-08-17T04:09:52.500Z,17.73
2022-08-17T04:12:24.835Z,17.30
2022-08-17T04:14:54.654Z,19.53
2022-08-17T04:17:29.200Z,17.30
2022-08-17T04:19:56.566Z,18.43
2022-08-17T04:22:32.818Z,17.97
2022-08-17T04:25:21.366Z,17.10
2022-08-17T04:27:51.523Z,18.57
2022-08-17T04:30:18.617Z,17.57
2022-08-17T04:33:13.989Z,15.97
2022-08-17T04:35:51.111Z,16.90
2022-08-17T04:38:21.919Z,18.13
2022-08-17T04:41:08.422Z,16.50
2022-08-17T04:43:37.788Z,17.30
2022-08-17T04:46:10.380Z,17.33
2022-08-17T04:48:50.278Z,15.47
2022-08-17T04:51:27.978Z,16.37
2022-08-17T04:54:02.605Z,16.83
2022-08-17T04:56:31.552Z,15.63
2022-08-17T04:59:03.323Z,14.63
2022-08-17T05:01:32.998Z,14.63
2022-08-17T05:04:21.108Z,14.90
2022-08-17T05:06:54.543Z,13.70
2022-08-17T05:09:22.352Z,14.30
2022-08-17T05:11:51.403Z,13.57
2022-08-17T05:14:18.460Z,15.37
2022-08-17T05:16:48.214Z,14.20
2022-08-17T05:19:15.240Z,12.97
2022-08-17T05:21:42.222Z,12.53
2022-08-17T05:24:20.272Z,11.60
2022-08-17T05:26:56.196Z,12.80
2022-08-17T05:29:23.133Z,12.80
2022-08-17T05:32:37.393Z,13.30
2022-08-17T05:35:00.632Z,12.60
2022-08-17T05:37:28.224Z,12.70
2022-08-17T05:39:55.235Z,12.90
2022-08-17T05:42:22.535Z,13.07
2022-08-17T05:44:49.593Z,14.80
2022-08-17T05:47:18.358Z,12.90
2022-08-17T05:49:49.041Z,13.17
2022-08-17T05:52:50.566Z,12.33
2022-08-17T05:55:38.351Z,13.00
2022-08-17T05:58:13.537Z,11.50
2022-08-17T06:01:10.667Z,11.57
2022-08-17T06:03:50.202Z,11.30
2022-08-17T06:06:38.182Z,10.90
2022-08-17T06:09:55.004Z,10.80
2022-08-17T06:12:47.584Z,9.97
2022-08-17T06:15:55.478Z,8.13
2022-08-17T06:18:26.849Z,8.10
2022-08-17T06:20:58.757Z,9.13
2022-08-17T06:23:36.483Z,8.77
2022-08-17T06:26:12.707Z,9.10
2022-08-17T06:28:50.458Z,8.90
2022-08-17T06:31:29.058Z,7.87
2022-08-17T06:33:58.405Z,7.27
2022-08-17T06:36:59.265Z,7.73
2022-08-17T06:39:56.863Z,7.57
2022-08-17T06:42:54.861Z,6.77
2022-08-17T06:45:39.658Z,6.07
2022-08-17T06:48:15.976Z,5.40
2022-08-17T06:50:53.474Z,5.03
2022-08-17T06:53:35.505Z,4.40
2022-08-17T06:56:11.013Z,4.17
2022-08-17T07:01:33.774Z,6.17
2022-08-17T07:04:19.525Z,4.17
2022-08-17T07:06:53.904Z,4.00
2022-08-17T07:09:29.722Z,3.90
2022-08-17T07:12:05.111Z,3.47
2022-08-17T07:14:37.927Z,3.65
2022-08-17T07:17:14.438Z,3.20
2022-08-17T07:19:45.688Z,9.85
2022-08-17T07:23:00.191Z,7.20
2022-08-17T07:25:28.592Z,2.65
2022-08-17T07:27:59.839Z,5.88
2022-08-17T07:30:45.643Z,3.53
2022-08-17T07:33:26.171Z,3.03
2022-08-17T07:35:53.698Z,3.47
2022-08-17T07:38:30.608Z,3.30
2022-08-17T07:41:04.827Z,2.95
2022-08-17T07:43:40.857Z,2.60
2022-08-17T07:46:41.994Z,2.75
2022-08-17T07:49:14.218Z,2.60
2022-08-17T07:51:44.198Z,2.80
2022-08-17T07:54:18.474Z,2.05
2022-08-17T07:56:59.019Z,3.03
2022-08-17T07:59:35.430Z,2.20
2022-08-17T08:02:15.681Z,2.20
2022-08-17T08:05:06.763Z,2.75
2022-08-17T08:07:52.984Z,2.15
2022-08-17T08:10:28.130Z,2.08
2022-08-17T08:13:22.122Z,3.03
2022-08-17T08:15:56.452Z,2.05
2022-08-17T08:18:38.573Z,1.77
2022-08-17T08:21:33.586Z,2.35
2022-08-17T08:24:18.679Z,1.83
2022-08-17T08:27:07.279Z,1.67
2022-08-17T08:29:54.128Z,1.42
2022-08-17T08:32:42.882Z,1.60
2022-08-17T08:35:20.298Z,1.55
2022-08-17T08:38:06.004Z,1.30
2022-08-17T08:41:03.135Z,1.30
2022-08-17T08:43:32.294Z,1.02
2022-08-17T08:46:18.391Z,1.20
2022-08-17T08:49:45.232Z,1.50
2022-08-17T08:53:15.168Z,1.30
2022-08-17T08:56:04.013Z,1.15
2022-08-17T08:58:44.397Z,1.02
2022-08-17T09:01:32.565Z,1.30
2022-08-17T09:04:25.245Z,1.30
2022-08-17T09:07:23.816Z,1.25
2022-08-17T09:09:59.688Z,1.27
2022-08-17T09:13:09.853Z,1.10
2022-08-17T09:15:57.327Z,1.25
2022-08-17T09:19:00.480Z,1.23
2022-08-17T09:21:55.091Z,1.80
2022-08-17T09:24:31.993Z,1.20
2022-08-17T09:27:14.722Z,1.45
2022-08-17T09:29:57.922Z,1.40
2022-08-17T09:32:40.507Z,1.33
2022-08-17T09:35:17.429Z,1.42
2022-08-17T09:38:04.131Z,1.08
2022-08-17T09:40:39.697Z,1.98
2022-08-17T09:43:40.353Z,9.73
2022-08-17T09:46:22.357Z,1.33
2022-08-17T09:49:25.333Z,1.05
2022-08-17T09:52:00.644Z,1.08
2022-08-17T09:54:39.546Z,2.33
2022-08-17T09:57:47.377Z,1.20
2022-08-17T10:00:29.191Z,0.80
2022-08-17T10:03:20.391Z,0.90
2022-08-17T10:09:00.160Z,0.68
2022-08-17T10:12:02.587Z,0.80
2022-08-17T10:15:08.021Z,0.90
2022-08-17T10:18:01.249Z,0.98
2022-08-17T10:21:19.349Z,1.63
2022-08-17T10:24:13.616Z,1.00
2022-08-17T10:26:56.864Z,0.80
2022-08-17T10:29:49.864Z,1.27
2022-08-17T10:32:33.345Z,0.98
2022-08-17T10:35:40.275Z,0.90
2022-08-17T10:38:28.745Z,1.08
2022-08-17T10:41:26.746Z,0.90
2022-08-17T10:44:50.585Z,1.33
2022-08-17T10:47:19.567Z,1.25
2022-08-17T10:49:55.978Z,1.60
2022-08-17T10:52:25.017Z,1.73
2022-08-17T10:54:58.020Z,1.38
2022-08-17T10:57:34.192Z,1.30
2022-08-17T11:00:12.920Z,1.77
2022-08-17T11:02:52.140Z,1.63
2022-08-17T11:05:41.485Z,1.77
2022-08-17T11:08:45.736Z,1.33
2022-08-17T11:11:36.994Z,1.90
2022-08-17T11:14:29.451Z,1.20
2022-08-17T11:17:20.028Z,2.10
2022-08-17T11:20:28.971Z,1.77
2022-08-17T11:22:59.774Z,1.60
2022-08-17T11:25:38.514Z,2.10
2022-08-17T11:28:22.051Z,2.80
2022-08-17T11:30:59.042Z,1.97
2022-08-17T11:33:30.389Z,2.17
2022-08-17T11:36:32.042Z,2.50
2022-08-17T11:39:15.704Z,2.17
2022-08-17T11:42:29.163Z,2.10
2022-08-17T11:45:04.145Z,2.27
2022-08-17T11:48:26.620Z,2.50
2022-08-17T11:51:33.850Z,2.47
2022-08-17T11:54:34.331Z,2.30
2022-08-17T11:57:27.308Z,2.40
2022-08-17T12:00:03.651Z,3.60
2022-08-17T12:02:36.157Z,2.70
2022-08-17T12:05:12.457Z,3.93
2022-08-17T12:07:51.980Z,2.53
2022-08-17T12:10:31.799Z,2.87
2022-08-17T12:13:11.237Z,2.27
2022-08-17T12:15:51.260Z,2.50
2022-08-17T12:18:30.979Z,2.27
2022-08-17T12:21:42.758Z,2.47
2022-08-17T12:24:42.501Z,1.93
2022-08-17T12:27:11.636Z,2.10
2022-08-17T12:29:44.523Z,2.87
2022-08-17T12:32:18.691Z,1.80
2022-08-17T12:34:49.395Z,2.13
2022-08-17T12:37:31.626Z,2.80
2022-08-17T12:40:08.598Z,2.33
2022-08-17T12:42:39.439Z,1.80
2022-08-17T12:45:21.549Z,1.93
2022-08-17T12:47:48.593Z,2.07
2022-08-17T12:50:29.054Z,2.67
2022-08-17T12:53:01.666Z,2.00
2022-08-17T12:55:36.675Z,2.90
2022-08-17T12:58:05.296Z,2.60
2022-08-17T13:00:41.149Z,1.87
2022-08-17T13:03:25.474Z,2.50
2022-08-17T13:05:52.441Z,1.70
2022-08-17T13:08:27.102Z,2.00
2022-08-17T13:11:01.535Z,2.50
2022-08-17T13:13:39.063Z,2.57
2022-08-17T13:16:18.559Z,2.37
2022-08-17T13:18:54.449Z,2.10
2022-08-17T13:21:25.854Z,2.40
2022-08-17T13:24:10.748Z,2.23
2022-08-17T13:27:08.276Z,2.93
2022-08-17T13:29:45.883Z,2.60
2022-08-17T13:32:33.405Z,2.57
2022-08-17T13:35:15.226Z,2.57
2022-08-17T13:38:06.510Z,2.90
2022-08-17T13:40:50.295Z,2.10
2022-08-17T13:43:44.826Z,2.50
2022-08-17T13:46:33.578Z,2.73
2022-08-17T13:49:11.554Z,2.07
2022-08-17T13:51:50.117Z,2.17
2022-08-17T13:54:43.986Z,2.97
2022-08-17T13:57:19.115Z,2.50
2022-08-17T13:59:55.088Z,2.73
2022-08-17T14:02:25.972Z,2.27
2022-08-17T14:04:54.945Z,2.00
2022-08-17T14:07:31.729Z,2.70
2022-08-17T14:10:17.769Z,2.20
2022-08-17T14:12:45.639Z,2.60
2022-08-17T14:15:19.337Z,2.50
2022-08-17T14:17:49.533Z,2.97
2022-08-17T14:20:20.769Z,2.77
2022-08-17T14:22:55.657Z,2.40
2022-08-17T14:25:29.364Z,2.40
2022-08-17T14:27:56.926Z,2.70
2022-08-17T14:30:29.035Z,2.50
2022-08-17T14:32:58.076Z,2.77
2022-08-17T14:35:27.851Z,2.73
2022-08-17T14:37:55.740Z,2.37
2022-08-17T14:40:28.036Z,3.00
2022-08-17T14:42:56.680Z,2.97
2022-08-17T14:45:29.653Z,6.13
2022-08-17T14:48:07.490Z,2.60
2022-08-17T14:50:37.513Z,3.13
2022-08-17T14:53:07.532Z,4.00
2022-08-17T14:55:36.831Z,2.83
2022-08-17T14:58:04.184Z,2.80
2022-08-17T15:00:32.070Z,3.13
2022-08-17T15:03:01.281Z,2.40
2022-08-17T15:05:33.495Z,2.60
2022-08-17T15:08:02.724Z,3.53
2022-08-17T15:10:31.763Z,5.90
2022-08-17T15:13:00.226Z,3.30
2022-08-17T15:15:28.631Z,2.83
2022-08-17T15:17:56.425Z,3.30
2022-08-17T15:20:28.340Z,2.90
2022-08-17T15:22:57.500Z,3.13
2022-08-17T15:25:28.544Z,2.70
2022-08-17T15:27:56.547Z,3.20
2022-08-17T15:30:25.737Z,3.83
2022-08-17T15:32:55.298Z,2.90
2022-08-17T15:35:27.858Z,2.70
2022-08-17T15:38:10.160Z,2.77
2022-08-17T15:40:45.577Z,2.43
2022-08-17T15:43:27.320Z,2.60
2022-08-17T15:46:00.924Z,2.80
2022-08-17T15:48:40.738Z,3.00
2022-08-17T15:51:20.846Z,3.60
2022-08-17T15:53:53.561Z,3.00
2022-08-17T15:56:21.266Z,2.70
2022-08-17T15:58:50.017Z,2.77
2022-08-17T16:01:41.876Z,3.70
2022-08-17T16:04:29.747Z,3.60
2022-08-17T16:06:54.870Z,3.70
2022-08-17T16:09:21.873Z,3.47
2022-08-17T16:11:53.720Z,3.27
2022-08-17T16:14:24.219Z,3.67
2022-08-17T16:16:51.698Z,3.53
2022-08-17T16:19:18.618Z,3.23
2022-08-17T16:21:45.600Z,3.07
2022-08-17T16:24:14.970Z,4.23
2022-08-17T16:26:42.503Z,3.80
2022-08-17T16:29:09.714Z,5.40
2022-08-17T16:31:37.779Z,6.20
2022-08-17T16:34:15.707Z,2.77
2022-08-17T16:36:54.885Z,3.33
2022-08-17T16:39:24.582Z,3.10
2022-08-17T16:41:51.589Z,3.70
2022-08-17T16:44:21.112Z,4.90
2022-08-17T16:46:50.269Z,4.13
2022-08-17T16:49:35.168Z,2.93
2022-08-17T16:52:09.536Z,2.93
2022-08-17T16:54:43.658Z,3.43
2022-08-17T16:57:13.429Z,3.60
2022-08-17T16:59:43.706Z,3.27
2022-08-17T17:02:16.579Z,3.70
2022-08-17T17:04:57.669Z,3.60
2022-08-17T17:07:49.817Z,3.37
2022-08-17T17:10:25.077Z,4.10
2022-08-17T17:13:04.019Z,3.90
2022-08-17T17:15:57.753Z,3.80
2022-08-17T17:18:43.495Z,5.60
2022-08-17T17:21:15.081Z,7.77
2022-08-17T17:23:59.811Z,4.17
2022-08-17T17:26:53.883Z,4.03
2022-08-17T17:29:48.830Z,5.43
2022-08-17T17:32:32.178Z,6.80
2022-08-17T17:35:31.839Z,4.57
2022-08-17T17:38:04.871Z,5.10
2022-08-17T17:40:45.596Z,6.30
2022-08-17T17:43:38.983Z,4.63
2022-08-17T17:46:33.321Z,5.73
2022-08-17T17:49:00.959Z,5.00
2022-08-17T17:52:10.239Z,5.00
2022-08-17T17:54:53.067Z,4.83
2022-08-17T17:57:50.662Z,4.90
2022-08-17T18:00:26.935Z,5.40
2022-08-17T18:03:18.208Z,5.20
2022-08-17T18:06:22.733Z,5.60
2022-08-17T18:09:19.340Z,5.77
2022-08-17T18:12:13.313Z,5.17
2022-08-17T18:15:04.184Z,5.10
2022-08-17T18:17:31.745Z,5.57
2022-08-17T18:19:59.165Z,5.07
2022-08-17T18:22:27.758Z,5.90
2022-08-17T18:24:58.831Z,6.60
2022-08-17T18:27:31.395Z,7.00
2022-08-17T18:30:09.087Z,5.90
2022-08-17T18:32:40.028Z,6.10
2022-08-17T18:35:09.911Z,7.30
2022-08-17T18:37:45.940Z,6.47
2022-08-17T18:40:21.546Z,6.20
2022-08-17T18:43:03.669Z,8.30
2022-08-17T18:45:49.303Z,6.97
2022-08-17T18:48:33.153Z,7.77
2022-08-17T18:51:42.219Z,7.63
2022-08-17T18:54:20.820Z,6.47
2022-08-17T18:57:00.013Z,7.40
2022-08-17T18:59:43.520Z,6.93
2022-08-17T19:02:24.839Z,7.60
2022-08-17T19:05:31.322Z,8.60
2022-08-17T19:08:29.284Z,9.70
2022-08-17T19:11:10.896Z,10.90
2022-08-17T19:13:47.552Z,11.23
2022-08-17T19:16:54.966Z,9.80
2022-08-17T19:19:48.179Z,8.63
2022-08-17T19:22:28.543Z,9.73
2022-08-17T19:25:11.992Z,11.83
2022-08-17T19:27:57.466Z,8.10
2022-08-17T19:30:25.824Z,10.10
2022-08-17T19:32:53.143Z,11.47
2022-08-17T19:35:25.166Z,10.37
2022-08-17T19:38:34.050Z,10.37
2022-08-17T19:41:47.029Z,10.23
2022-08-17T19:44:33.921Z,10.30
2022-08-17T19:47:43.820Z,9.53
2022-08-17T19:50:45.083Z,11.03
2022-08-17T19:54:05.059Z,14.80
2022-08-17T19:56:48.267Z,8.20
2022-08-17T19:59:41.416Z,8.80
2022-08-17T20:02:26.536Z,8.33
2022-08-17T20:04:59.603Z,8.53
2022-08-17T20:07:42.588Z,8.97
2022-08-17T20:10:24.003Z,9.30
2022-08-17T20:12:53.466Z,10.20
2022-08-17T20:15:30.162Z,9.50
2022-08-17T20:18:01.600Z,9.67
2022-08-17T20:20:51.865Z,12.13
2022-08-17T20:23:35.672Z,10.30
2022-08-17T20:26:55.317Z,8.67
2022-08-17T20:30:11.530Z,11.80
2022-08-17T20:32:49.516Z,9.90
2022-08-17T20:35:36.340Z,9.73
2022-08-17T20:38:10.534Z,8.60
2022-08-17T20:40:54.323Z,8.93
2022-08-17T20:43:33.193Z,8.10
2022-08-17T20:46:30.467Z,9.83
2022-08-17T20:49:08.373Z,9.50
2022-08-17T20:52:02.433Z,8.27
2022-08-17T20:54:54.307Z,7.33
2022-08-17T20:57:33.481Z,7.00
2022-08-17T21:00:22.198Z,7.40
2022-08-17T21:02:51.997Z,7.10
2022-08-17T21:05:38.899Z,8.10
2022-08-17T21:08:17.642Z,7.10
2022-08-17T21:10:47.099Z,7.27
2022-08-17T21:13:15.516Z,6.70
2022-08-17T21:15:58.922Z,6.97
2022-08-17T21:18:54.753Z,7.27
2022-08-17T21:21:48.465Z,6.80
2022-08-17T21:24:15.412Z,7.27
2022-08-17T21:27:12.314Z,7.23
2022-08-17T21:30:21.632Z,7.47
2022-08-17T21:33:26.753Z,7.80
2022-08-17T21:35:59.515Z,6.87
2022-08-17T21:38:53.407Z,7.80
2022-08-17T21:41:47.717Z,7.03
2022-08-17T21:44:37.221Z,7.27
2022-08-17T21:47:21.782Z,7.70
2022-08-17T21:49:50.028Z,7.10
2022-08-17T21:52:20.880Z,7.63
2022-08-17T21:54:55.625Z,8.10
2022-08-17T21:57:28.641Z,8.07
2022-08-17T22:00:00.760Z,8.00
2022-08-17T22:02:34.693Z,8.07
2022-08-17T22:05:12.143Z,8.50
2022-08-17T22:07:45.804Z,8.30
2022-08-17T22:10:37.490Z,8.10
2022-08-17T22:13:05.946Z,7.90
2022-08-17T22:16:27.633Z,7.90
2022-08-17T22:19:00.468Z,8.10
2022-08-17T22:21:28.152Z,7.73
2022-08-17T22:24:22.653Z,7.90
2022-08-17T22:27:11.686Z,7.47
2022-08-17T22:29:59.062Z,8.17
2022-08-17T22:32:42.110Z,8.90
2022-08-17T22:35:28.942Z,8.83
2022-08-17T22:38:18.611Z,8.60
2022-08-17T22:41:34.427Z,8.40
2022-08-17T22:44:23.081Z,7.83
2022-08-17T22:47:32.224Z,7.80
2022-08-17T22:50:02.313Z,8.70
2022-08-17T22:52:32.583Z,8.60
2022-08-17T22:55:42.911Z,8.67
2022-08-17T22:58:37.596Z,8.93
2022-08-17T23:01:31.442Z,8.90
2022-08-17T23:04:06.729Z,8.90
2022-08-17T23:06:37.113Z,9.03
2022-08-17T23:09:06.569Z,9.53
2022-08-17T23:11:49.832Z,9.17
2022-08-17T23:14:20.456Z,8.30
2022-08-17T23:16:50.087Z,8.70
2022-08-17T23:19:20.859Z,7.60
2022-08-17T23:21:49.205Z,8.20
2022-08-17T23:24:22.867Z,7.53
2022-08-17T23:26:50.260Z,8.50
2022-08-17T23:29:17.390Z,8.60
2022-08-17T23:31:44.379Z,8.43
2022-08-17T23:34:14.009Z,9.40
2022-08-17T23:36:42.102Z,9.20
2022-08-17T23:39:09.148Z,8.57
2022-08-17T23:41:40.413Z,8.47
2022-08-17T23:44:07.473Z,8.53
2022-08-17T23:46:34.936Z,8.13
2022-08-17T23:49:03.201Z,8.57
2022-08-17T23:51:38.255Z,8.93
2022-08-17T23:54:26.751Z,8.27
2022-08-17T23:56:53.855Z,8.23
2022-08-17T23:59:23.277Z,8.43
